sensor_id;sensor_type;location;lat;lon;timestamp;P1;durP1;ratioP1;P2;durP2;ratioP2
9306;SDS011;4691;47.612;7.610;2023-06-14T00:01:44;15.27;;;8.07;;
9306;SDS011;4691;47.612;7.610;2023-06-14T00:04:12;13.98;;;7.43;;
9306;SDS011;4691;47.612;7.610;2023-06-14T00:06:47;13.82;;;7.68;;
9306;SDS011;4691;47.612;7.610;2023-06-14T00:09:13;10.90;;;7.40;;
9306;SDS011;4691;47.612;7.610;2023-06-14T00:11:41;16.45;;;8.05;;
9306;SDS011;4691;47.612;7.610;2023-06-14T00:14:06;11.48;;;7.22;;
9306;SDS011;4691;47.612;7.610;2023-06-14T00:16:32;10.80;;;7.80;;
9306;SDS011;4691;47.612;7.610;2023-06-14T00:18:59;10.77;;;7.43;;
9306;SDS011;4691;47.612;7.610;2023-06-14T00:21:30;17.17;;;7.53;;
9306;SDS011;4691;47.612;7.610;2023-06-14T00:24:00;12.70;;;7.30;;
9306;SDS011;4691;47.612;7.610;2023-06-14T00:26:26;11.85;;;8.02;;
9306;SDS011;4691;47.612;7.610;2023-06-14T00:28:54;13.95;;;7.60;;
9306;SDS011;4691;47.612;7.610;2023-06-14T00:31:24;12.75;;;7.57;;
9306;SDS011;4691;47.612;7.610;2023-06-14T00:33:52;14.13;;;7.95;;
9306;SDS011;4691;47.612;7.610;2023-06-14T00:36:18;12.60;;;7.25;;
9306;SDS011;4691;47.612;7.610;2023-06-14T00:38:46;11.13;;;7.60;;
9306;SDS011;4691;47.612;7.610;2023-06-14T00:41:12;22.20;;;8.05;;
9306;SDS011;4691;47.612;7.610;2023-06-14T00:43:46;11.00;;;7.38;;
9306;SDS011;4691;47.612;7.610;2023-06-14T00:46:19;14.10;;;7.82;;
9306;SDS011;4691;47.612;7.610;2023-06-14T00:48:44;11.80;;;8.00;;
9306;SDS011;4691;47.612;7.610;2023-06-14T00:51:16;11.75;;;7.72;;
9306;SDS011;4691;47.612;7.610;2023-06-14T00:53:42;14.20;;;8.75;;
9306;SDS011;4691;47.612;7.610;2023-06-14T00:56:11;16.52;;;8.23;;
9306;SDS011;4691;47.612;7.610;2023-06-14T01:01:13;13.10;;;7.47;;
9306;SDS011;4691;47.612;7.610;2023-06-14T01:03:43;12.10;;;7.82;;
9306;SDS011;4691;47.612;7.610;2023-06-14T01:06:23;18.77;;;8.07;;
9306;SDS011;4691;47.612;7.610;2023-06-14T01:12:04;13.60;;;7.50;;
9306;SDS011;4691;47.612;7.610;2023-06-14T01:14:28;13.32;;;8.38;;
9306;SDS011;4691;47.612;7.610;2023-06-14T01:16:55;11.82;;;7.30;;
9306;SDS011;4691;47.612;7.610;2023-06-14T01:19:25;11.00;;;7.78;;
9306;SDS011;4691;47.612;7.610;2023-06-14T01:21:53;12.10;;;7.95;;
9306;SDS011;4691;47.612;7.610;2023-06-14T01:24:21;13.10;;;7.80;;
9306;SDS011;4691;47.612;7.610;2023-06-14T01:26:50;13.73;;;7.60;;
9306;SDS011;4691;47.612;7.610;2023-06-14T01:29:20;12.10;;;8.07;;
9306;SDS011;4691;47.612;7.610;2023-06-14T01:31:47;16.38;;;7.80;;
9306;SDS011;4691;47.612;7.610;2023-06-14T01:34:13;12.85;;;7.80;;
9306;SDS011;4691;47.612;7.610;2023-06-14T01:36:40;14.20;;;7.85;;
9306;SDS011;4691;47.612;7.610;2023-06-14T01:39:14;10.82;;;7.28;;
9306;SDS011;4691;47.612;7.610;2023-06-14T01:41:42;15.15;;;7.18;;
9306;SDS011;4691;47.612;7.610;2023-06-14T01:44:10;13.65;;;7.72;;
9306;SDS011;4691;47.612;7.610;2023-06-14T01:46:38;13.77;;;7.97;;
9306;SDS011;4691;47.612;7.610;2023-06-14T01:49:05;12.38;;;8.35;;
9306;SDS011;4691;47.612;7.610;2023-06-14T01:51:30;14.30;;;8.48;;
9306;SDS011;4691;47.612;7.610;2023-06-14T01:53:56;12.52;;;7.82;;
9306;SDS011;4691;47.612;7.610;2023-06-14T01:56:22;12.45;;;7.45;;
9306;SDS011;4691;47.612;7.610;2023-06-14T01:58:47;12.40;;;7.90;;
9306;SDS011;4691;47.612;7.610;2023-06-14T02:01:13;15.50;;;8.20;;
9306;SDS011;4691;47.612;7.610;2023-06-14T02:03:41;16.30;;;8.50;;
9306;SDS011;4691;47.612;7.610;2023-06-14T02:06:07;13.85;;;7.22;;
9306;SDS011;4691;47.612;7.610;2023-06-14T02:08:32;13.63;;;8.02;;
9306;SDS011;4691;47.612;7.610;2023-06-14T02:10:58;14.15;;;7.57;;
9306;SDS011;4691;47.612;7.610;2023-06-14T02:13:23;13.88;;;8.02;;
9306;SDS011;4691;47.612;7.610;2023-06-14T02:15:56;10.07;;;7.15;;
9306;SDS011;4691;47.612;7.610;2023-06-14T02:19:30;13.27;;;7.93;;
9306;SDS011;4691;47.612;7.610;2023-06-14T02:21:56;13.77;;;8.23;;
9306;SDS011;4691;47.612;7.610;2023-06-14T02:24:21;16.98;;;8.23;;
9306;SDS011;4691;47.612;7.610;2023-06-14T02:26:46;16.30;;;7.88;;
9306;SDS011;4691;47.612;7.610;2023-06-14T02:29:11;15.32;;;7.95;;
9306;SDS011;4691;47.612;7.610;2023-06-14T02:31:39;10.82;;;7.82;;
9306;SDS011;4691;47.612;7.610;2023-06-14T02:34:06;13.48;;;8.63;;
9306;SDS011;4691;47.612;7.610;2023-06-14T02:36:33;16.08;;;8.20;;
9306;SDS011;4691;47.612;7.610;2023-06-14T02:38:59;14.10;;;8.20;;
9306;SDS011;4691;47.612;7.610;2023-06-14T02:41:24;16.67;;;8.60;;
9306;SDS011;4691;47.612;7.610;2023-06-14T02:43:50;12.73;;;8.52;;
9306;SDS011;4691;47.612;7.610;2023-06-14T02:46:16;13.77;;;8.65;;
9306;SDS011;4691;47.612;7.610;2023-06-14T02:48:41;11.55;;;7.97;;
9306;SDS011;4691;47.612;7.610;2023-06-14T02:51:06;18.50;;;8.25;;
9306;SDS011;4691;47.612;7.610;2023-06-14T02:53:33;13.48;;;8.00;;
9306;SDS011;4691;47.612;7.610;2023-06-14T02:55:58;15.50;;;8.32;;
9306;SDS011;4691;47.612;7.610;2023-06-14T02:58:24;18.77;;;10.43;;
9306;SDS011;4691;47.612;7.610;2023-06-14T03:00:50;14.02;;;8.23;;
9306;SDS011;4691;47.612;7.610;2023-06-14T03:03:17;13.80;;;8.55;;
9306;SDS011;4691;47.612;7.610;2023-06-14T03:05:44;12.07;;;8.32;;
9306;SDS011;4691;47.612;7.610;2023-06-14T03:08:17;11.05;;;7.80;;
9306;SDS011;4691;47.612;7.610;2023-06-14T03:10:45;11.85;;;8.18;;
9306;SDS011;4691;47.612;7.610;2023-06-14T03:13:11;14.65;;;8.32;;
9306;SDS011;4691;47.612;7.610;2023-06-14T03:15:37;13.27;;;7.53;;
9306;SDS011;4691;47.612;7.610;2023-06-14T03:18:03;13.00;;;8.02;;
9306;SDS011;4691;47.612;7.610;2023-06-14T03:20:28;16.58;;;7.95;;
9306;SDS011;4691;47.612;7.610;2023-06-14T03:22:58;16.10;;;8.48;;
9306;SDS011;4691;47.612;7.610;2023-06-14T03:25:24;13.82;;;8.45;;
9306;SDS011;4691;47.612;7.610;2023-06-14T03:27:51;12.93;;;8.00;;
9306;SDS011;4691;47.612;7.610;2023-06-14T03:30:16;17.65;;;8.93;;
9306;SDS011;4691;47.612;7.610;2023-06-14T03:32:42;13.73;;;8.20;;
9306;SDS011;4691;47.612;7.610;2023-06-14T03:35:07;19.73;;;7.93;;
9306;SDS011;4691;47.612;7.610;2023-06-14T03:37:33;18.73;;;8.70;;
9306;SDS011;4691;47.612;7.610;2023-06-14T03:39:58;15.50;;;8.48;;
9306;SDS011;4691;47.612;7.610;2023-06-14T03:42:23;13.18;;;8.93;;
9306;SDS011;4691;47.612;7.610;2023-06-14T03:44:48;19.02;;;8.98;;
9306;SDS011;4691;47.612;7.610;2023-06-14T03:47:14;18.40;;;10.02;;
9306;SDS011;4691;47.612;7.610;2023-06-14T03:49:40;14.32;;;8.63;;
9306;SDS011;4691;47.612;7.610;2023-06-14T03:52:05;15.55;;;8.35;;
9306;SDS011;4691;47.612;7.610;2023-06-14T03:54:31;15.95;;;8.07;;
9306;SDS011;4691;47.612;7.610;2023-06-14T03:56:57;17.05;;;9.18;;
9306;SDS011;4691;47.612;7.610;2023-06-14T03:59:23;13.70;;;8.20;;
9306;SDS011;4691;47.612;7.610;2023-06-14T04:01:49;14.38;;;9.10;;
9306;SDS011;4691;47.612;7.610;2023-06-14T04:04:14;14.55;;;8.75;;
9306;SDS011;4691;47.612;7.610;2023-06-14T04:06:41;15.27;;;9.25;;
9306;SDS011;4691;47.612;7.610;2023-06-14T04:09:07;21.65;;;9.23;;
9306;SDS011;4691;47.612;7.610;2023-06-14T04:11:33;12.75;;;8.80;;
9306;SDS011;4691;47.612;7.610;2023-06-14T04:13:58;14.20;;;9.20;;
9306;SDS011;4691;47.612;7.610;2023-06-14T04:16:23;13.85;;;8.98;;
9306;SDS011;4691;47.612;7.610;2023-06-14T04:18:49;17.60;;;9.32;;
9306;SDS011;4691;47.612;7.610;2023-06-14T04:21:17;11.68;;;8.15;;
9306;SDS011;4691;47.612;7.610;2023-06-14T04:23:45;16.25;;;8.82;;
9306;SDS011;4691;47.612;7.610;2023-06-14T04:26:11;15.75;;;8.32;;
9306;SDS011;4691;47.612;7.610;2023-06-14T04:28:36;16.25;;;8.20;;
9306;SDS011;4691;47.612;7.610;2023-06-14T04:31:05;14.77;;;8.10;;
9306;SDS011;4691;47.612;7.610;2023-06-14T04:33:37;13.20;;;8.48;;
9306;SDS011;4691;47.612;7.610;2023-06-14T04:36:09;14.80;;;8.25;;
9306;SDS011;4691;47.612;7.610;2023-06-14T04:45:20;22.27;;;9.18;;
9306;SDS011;4691;47.612;7.610;2023-06-14T04:47:47;13.98;;;8.60;;
9306;SDS011;4691;47.612;7.610;2023-06-14T04:50:12;15.70;;;9.18;;
9306;SDS011;4691;47.612;7.610;2023-06-14T04:52:38;16.00;;;9.73;;
9306;SDS011;4691;47.612;7.610;2023-06-14T04:55:03;15.95;;;9.45;;
9306;SDS011;4691;47.612;7.610;2023-06-14T04:57:29;14.63;;;9.45;;
9306;SDS011;4691;47.612;7.610;2023-06-14T04:59:54;17.52;;;9.55;;
9306;SDS011;4691;47.612;7.610;2023-06-14T05:02:20;15.23;;;9.35;;
9306;SDS011;4691;47.612;7.610;2023-06-14T05:04:49;16.88;;;9.23;;
9306;SDS011;4691;47.612;7.610;2023-06-14T05:07:15;15.05;;;9.15;;
9306;SDS011;4691;47.612;7.610;2023-06-14T05:09:40;19.20;;;8.75;;
9306;SDS011;4691;47.612;7.610;2023-06-14T05:12:06;12.50;;;8.82;;
9306;SDS011;4691;47.612;7.610;2023-06-14T05:14:34;18.60;;;9.07;;
9306;SDS011;4691;47.612;7.610;2023-06-14T05:17:00;14.65;;;9.27;;
9306;SDS011;4691;47.612;7.610;2023-06-14T05:19:27;16.80;;;9.45;;
9306;SDS011;4691;47.612;7.610;2023-06-14T05:21:52;16.20;;;10.15;;
9306;SDS011;4691;47.612;7.610;2023-06-14T05:24:18;16.15;;;9.10;;
9306;SDS011;4691;47.612;7.610;2023-06-14T05:26:43;20.80;;;9.65;;
9306;SDS011;4691;47.612;7.610;2023-06-14T05:29:09;13.48;;;8.85;;
9306;SDS011;4691;47.612;7.610;2023-06-14T05:31:34;14.45;;;8.65;;
9306;SDS011;4691;47.612;7.610;2023-06-14T05:33:59;18.42;;;8.75;;
9306;SDS011;4691;47.612;7.610;2023-06-14T05:36:25;18.48;;;8.60;;
9306;SDS011;4691;47.612;7.610;2023-06-14T05:38:50;16.13;;;8.68;;
9306;SDS011;4691;47.612;7.610;2023-06-14T05:41:16;17.83;;;8.88;;
9306;SDS011;4691;47.612;7.610;2023-06-14T05:43:41;14.50;;;8.98;;
9306;SDS011;4691;47.612;7.610;2023-06-14T05:46:07;15.82;;;9.30;;
9306;SDS011;4691;47.612;7.610;2023-06-14T05:48:32;18.70;;;9.75;;
9306;SDS011;4691;47.612;7.610;2023-06-14T05:50:58;19.08;;;9.80;;
9306;SDS011;4691;47.612;7.610;2023-06-14T05:53:23;22.15;;;10.38;;
9306;SDS011;4691;47.612;7.610;2023-06-14T05:55:49;19.90;;;10.05;;
9306;SDS011;4691;47.612;7.610;2023-06-14T05:58:18;17.38;;;9.20;;
9306;SDS011;4691;47.612;7.610;2023-06-14T06:00:43;19.55;;;10.35;;
9306;SDS011;4691;47.612;7.610;2023-06-14T06:03:09;15.55;;;9.15;;
9306;SDS011;4691;47.612;7.610;2023-06-14T06:05:36;14.20;;;9.48;;
9306;SDS011;4691;47.612;7.610;2023-06-14T06:08:01;21.15;;;9.65;;
9306;SDS011;4691;47.612;7.610;2023-06-14T06:10:26;16.65;;;10.20;;
9306;SDS011;4691;47.612;7.610;2023-06-14T06:12:52;13.50;;;9.07;;
9306;SDS011;4691;47.612;7.610;2023-06-14T06:15:19;14.30;;;9.57;;
9306;SDS011;4691;47.612;7.610;2023-06-14T06:17:44;14.50;;;9.18;;
9306;SDS011;4691;47.612;7.610;2023-06-14T06:20:10;14.95;;;9.23;;
9306;SDS011;4691;47.612;7.610;2023-06-14T06:22:36;19.13;;;9.85;;
9306;SDS011;4691;47.612;7.610;2023-06-14T06:25:02;17.25;;;9.60;;
9306;SDS011;4691;47.612;7.610;2023-06-14T06:27:28;20.50;;;9.98;;
9306;SDS011;4691;47.612;7.610;2023-06-14T06:29:53;15.38;;;9.57;;
9306;SDS011;4691;47.612;7.610;2023-06-14T06:32:18;20.40;;;9.90;;
9306;SDS011;4691;47.612;7.610;2023-06-14T06:34:44;20.65;;;11.13;;
9306;SDS011;4691;47.612;7.610;2023-06-14T06:37:09;22.75;;;10.25;;
9306;SDS011;4691;47.612;7.610;2023-06-14T06:39:35;19.33;;;10.35;;
9306;SDS011;4691;47.612;7.610;2023-06-14T06:42:00;20.73;;;11.07;;
9306;SDS011;4691;47.612;7.610;2023-06-14T06:44:26;21.20;;;10.07;;
9306;SDS011;4691;47.612;7.610;2023-06-14T06:46:51;19.33;;;10.77;;
9306;SDS011;4691;47.612;7.610;2023-06-14T06:49:16;19.15;;;10.35;;
9306;SDS011;4691;47.612;7.610;2023-06-14T06:51:42;22.98;;;10.18;;
9306;SDS011;4691;47.612;7.610;2023-06-14T06:54:08;20.50;;;10.48;;
9306;SDS011;4691;47.612;7.610;2023-06-14T06:56:34;19.60;;;11.20;;
9306;SDS011;4691;47.612;7.610;2023-06-14T06:58:59;21.17;;;11.55;;
9306;SDS011;4691;47.612;7.610;2023-06-14T07:01:25;24.27;;;10.95;;
9306;SDS011;4691;47.612;7.610;2023-06-14T07:03:51;27.85;;;11.52;;
9306;SDS011;4691;47.612;7.610;2023-06-14T07:06:16;22.17;;;10.38;;
9306;SDS011;4691;47.612;7.610;2023-06-14T07:08:43;21.60;;;10.25;;
9306;SDS011;4691;47.612;7.610;2023-06-14T07:11:09;17.02;;;10.23;;
9306;SDS011;4691;47.612;7.610;2023-06-14T07:13:34;20.50;;;10.98;;
9306;SDS011;4691;47.612;7.610;2023-06-14T07:16:00;20.52;;;10.82;;
9306;SDS011;4691;47.612;7.610;2023-06-14T07:18:25;24.95;;;12.43;;
9306;SDS011;4691;47.612;7.610;2023-06-14T07:20:51;21.65;;;11.30;;
9306;SDS011;4691;47.612;7.610;2023-06-14T07:23:17;20.02;;;11.32;;
9306;SDS011;4691;47.612;7.610;2023-06-14T07:25:42;28.48;;;11.70;;
9306;SDS011;4691;47.612;7.610;2023-06-14T07:28:07;29.20;;;11.13;;
9306;SDS011;4691;47.612;7.610;2023-06-14T07:30:33;24.48;;;11.93;;
9306;SDS011;4691;47.612;7.610;2023-06-14T07:32:58;23.10;;;11.10;;
9306;SDS011;4691;47.612;7.610;2023-06-14T07:35:23;21.33;;;11.60;;
9306;SDS011;4691;47.612;7.610;2023-06-14T07:37:48;26.88;;;11.15;;
9306;SDS011;4691;47.612;7.610;2023-06-14T07:40:14;28.95;;;12.63;;
9306;SDS011;4691;47.612;7.610;2023-06-14T07:42:40;22.70;;;11.57;;
9306;SDS011;4691;47.612;7.610;2023-06-14T07:45:05;20.73;;;12.23;;
9306;SDS011;4691;47.612;7.610;2023-06-14T07:47:32;23.40;;;11.35;;
9306;SDS011;4691;47.612;7.610;2023-06-14T07:49:57;20.80;;;11.13;;
9306;SDS011;4691;47.612;7.610;2023-06-14T07:52:23;38.58;;;12.32;;
9306;SDS011;4691;47.612;7.610;2023-06-14T07:54:48;26.05;;;11.40;;
9306;SDS011;4691;47.612;7.610;2023-06-14T07:57:14;32.03;;;12.30;;
9306;SDS011;4691;47.612;7.610;2023-06-14T07:59:39;22.13;;;11.95;;
9306;SDS011;4691;47.612;7.610;2023-06-14T08:02:04;18.85;;;11.40;;
9306;SDS011;4691;47.612;7.610;2023-06-14T08:04:30;25.00;;;11.63;;
9306;SDS011;4691;47.612;7.610;2023-06-14T08:06:56;29.52;;;12.00;;
9306;SDS011;4691;47.612;7.610;2023-06-14T08:09:22;30.23;;;12.18;;
9306;SDS011;4691;47.612;7.610;2023-06-14T08:11:47;24.25;;;12.00;;
9306;SDS011;4691;47.612;7.610;2023-06-14T08:14:13;20.80;;;12.13;;
9306;SDS011;4691;47.612;7.610;2023-06-14T08:16:38;19.95;;;10.38;;
9306;SDS011;4691;47.612;7.610;2023-06-14T08:19:03;25.42;;;12.25;;
9306;SDS011;4691;47.612;7.610;2023-06-14T08:21:29;23.27;;;11.63;;
9306;SDS011;4691;47.612;7.610;2023-06-14T08:23:54;22.73;;;11.07;;
9306;SDS011;4691;47.612;7.610;2023-06-14T08:26:20;27.05;;;11.75;;
9306;SDS011;4691;47.612;7.610;2023-06-14T08:28:46;22.85;;;11.07;;
9306;SDS011;4691;47.612;7.610;2023-06-14T08:33:42;20.35;;;10.75;;
9306;SDS011;4691;47.612;7.610;2023-06-14T08:36:08;18.83;;;11.20;;
9306;SDS011;4691;47.612;7.610;2023-06-14T08:38:37;22.42;;;11.00;;
9306;SDS011;4691;47.612;7.610;2023-06-14T08:41:05;26.63;;;10.85;;
9306;SDS011;4691;47.612;7.610;2023-06-14T08:43:39;21.92;;;10.73;;
9306;SDS011;4691;47.612;7.610;2023-06-14T08:46:14;30.67;;;10.90;;
9306;SDS011;4691;47.612;7.610;2023-06-14T08:48:55;22.75;;;10.30;;
9306;SDS011;4691;47.612;7.610;2023-06-14T08:51:26;19.00;;;10.40;;
9306;SDS011;4691;47.612;7.610;2023-06-14T08:57:25;20.10;;;10.70;;
9306;SDS011;4691;47.612;7.610;2023-06-14T09:03:40;28.13;;;10.65;;
9306;SDS011;4691;47.612;7.610;2023-06-14T09:06:12;23.38;;;10.43;;
9306;SDS011;4691;47.612;7.610;2023-06-14T09:09:13;17.40;;;10.80;;
9306;SDS011;4691;47.612;7.610;2023-06-14T09:17:42;29.05;;;10.82;;
9306;SDS011;4691;47.612;7.610;2023-06-14T09:24:25;30.80;;;9.38;;
9306;SDS011;4691;47.612;7.610;2023-06-14T09:26:59;22.73;;;10.82;;
9306;SDS011;4691;47.612;7.610;2023-06-14T09:45:48;17.65;;;9.35;;
9306;SDS011;4691;47.612;7.610;2023-06-14T09:49:14;16.20;;;9.38;;
9306;SDS011;4691;47.612;7.610;2023-06-14T09:55:05;20.00;;;9.63;;
9306;SDS011;4691;47.612;7.610;2023-06-14T10:02:11;16.42;;;9.73;;
9306;SDS011;4691;47.612;7.610;2023-06-14T10:26:02;15.25;;;8.90;;
9306;SDS011;4691;47.612;7.610;2023-06-14T11:13:29;13.88;;;8.77;;
9306;SDS011;4691;47.612;7.610;2023-06-14T11:23:02;12.43;;;8.90;;
9306;SDS011;4691;47.612;7.610;2023-06-14T11:25:57;15.80;;;8.73;;
9306;SDS011;4691;47.612;7.610;2023-06-14T11:31:17;14.63;;;9.00;;
9306;SDS011;4691;47.612;7.610;2023-06-14T11:33:53;16.27;;;8.93;;
9306;SDS011;4691;47.612;7.610;2023-06-14T11:36:33;14.65;;;8.55;;
9306;SDS011;4691;47.612;7.610;2023-06-14T11:46:15;12.07;;;8.10;;
9306;SDS011;4691;47.612;7.610;2023-06-14T11:48:44;15.82;;;8.57;;
9306;SDS011;4691;47.612;7.610;2023-06-14T11:51:21;13.10;;;8.93;;
9306;SDS011;4691;47.612;7.610;2023-06-14T11:54:40;12.90;;;8.80;;
9306;SDS011;4691;47.612;7.610;2023-06-14T11:57:20;13.63;;;8.90;;
9306;SDS011;4691;47.612;7.610;2023-06-14T11:59:48;15.57;;;8.35;;
9306;SDS011;4691;47.612;7.610;2023-06-14T12:02:32;12.93;;;9.00;;
9306;SDS011;4691;47.612;7.610;2023-06-14T12:05:05;11.32;;;8.18;;
9306;SDS011;4691;47.612;7.610;2023-06-14T12:07:57;13.30;;;8.60;;
9306;SDS011;4691;47.612;7.610;2023-06-14T12:10:43;12.30;;;8.60;;
9306;SDS011;4691;47.612;7.610;2023-06-14T12:13:27;19.60;;;8.90;;
9306;SDS011;4691;47.612;7.610;2023-06-14T12:15:56;14.85;;;9.23;;
9306;SDS011;4691;47.612;7.610;2023-06-14T12:18:38;19.17;;;8.63;;
9306;SDS011;4691;47.612;7.610;2023-06-14T12:21:05;12.80;;;8.75;;
9306;SDS011;4691;47.612;7.610;2023-06-14T12:27:00;13.45;;;9.68;;
9306;SDS011;4691;47.612;7.610;2023-06-14T12:29:31;13.52;;;8.85;;
9306;SDS011;4691;47.612;7.610;2023-06-14T12:32:00;16.67;;;9.30;;
9306;SDS011;4691;47.612;7.610;2023-06-14T12:37:42;12.75;;;8.55;;
9306;SDS011;4691;47.612;7.610;2023-06-14T12:43:29;16.33;;;8.52;;
9306;SDS011;4691;47.612;7.610;2023-06-14T12:46:03;16.58;;;8.98;;
9306;SDS011;4691;47.612;7.610;2023-06-14T12:51:35;18.42;;;8.75;;
9306;SDS011;4691;47.612;7.610;2023-06-14T12:54:20;18.80;;;9.27;;
9306;SDS011;4691;47.612;7.610;2023-06-14T12:56:47;14.48;;;9.35;;
9306;SDS011;4691;47.612;7.610;2023-06-14T12:59:12;12.70;;;8.68;;
9306;SDS011;4691;47.612;7.610;2023-06-14T13:01:46;13.77;;;9.02;;
9306;SDS011;4691;47.612;7.610;2023-06-14T13:04:15;11.50;;;8.52;;
9306;SDS011;4691;47.612;7.610;2023-06-14T13:06:46;10.35;;;8.73;;
9306;SDS011;4691;47.612;7.610;2023-06-14T13:09:12;15.18;;;8.77;;
9306;SDS011;4691;47.612;7.610;2023-06-14T13:11:38;14.68;;;9.20;;
9306;SDS011;4691;47.612;7.610;2023-06-14T13:14:03;13.90;;;9.05;;
9306;SDS011;4691;47.612;7.610;2023-06-14T13:16:29;18.35;;;9.57;;
9306;SDS011;4691;47.612;7.610;2023-06-14T13:18:54;12.25;;;9.02;;
9306;SDS011;4691;47.612;7.610;2023-06-14T13:21:20;14.52;;;9.27;;
9306;SDS011;4691;47.612;7.610;2023-06-14T13:23:45;14.77;;;8.73;;
9306;SDS011;4691;47.612;7.610;2023-06-14T13:26:11;15.13;;;8.48;;
9306;SDS011;4691;47.612;7.610;2023-06-14T13:28:37;13.50;;;8.85;;
9306;SDS011;4691;47.612;7.610;2023-06-14T13:31:02;17.13;;;8.80;;
9306;SDS011;4691;47.612;7.610;2023-06-14T13:33:31;14.50;;;8.57;;
9306;SDS011;4691;47.612;7.610;2023-06-14T13:35:59;14.95;;;9.07;;
9306;SDS011;4691;47.612;7.610;2023-06-14T13:38:24;15.60;;;8.68;;
9306;SDS011;4691;47.612;7.610;2023-06-14T13:40:53;15.68;;;8.68;;
9306;SDS011;4691;47.612;7.610;2023-06-14T13:43:21;13.95;;;9.32;;
9306;SDS011;4691;47.612;7.610;2023-06-14T13:45:55;16.38;;;8.50;;
9306;SDS011;4691;47.612;7.610;2023-06-14T13:48:23;13.90;;;9.00;;
9306;SDS011;4691;47.612;7.610;2023-06-14T13:50:49;12.70;;;9.13;;
9306;SDS011;4691;47.612;7.610;2023-06-14T13:53:15;15.50;;;8.45;;
9306;SDS011;4691;47.612;7.610;2023-06-14T13:55:43;16.05;;;9.63;;
9306;SDS011;4691;47.612;7.610;2023-06-14T13:58:10;13.00;;;9.52;;
9306;SDS011;4691;47.612;7.610;2023-06-14T14:00:41;12.90;;;8.98;;
9306;SDS011;4691;47.612;7.610;2023-06-14T14:03:07;13.93;;;9.02;;
9306;SDS011;4691;47.612;7.610;2023-06-14T14:05:33;15.55;;;9.32;;
9306;SDS011;4691;47.612;7.610;2023-06-14T14:08:04;13.02;;;8.27;;
9306;SDS011;4691;47.612;7.610;2023-06-14T14:10:47;14.57;;;9.70;;
9306;SDS011;4691;47.612;7.610;2023-06-14T14:13:21;13.70;;;9.00;;
9306;SDS011;4691;47.612;7.610;2023-06-14T14:21:18;18.88;;;9.13;;
9306;SDS011;4691;47.612;7.610;2023-06-14T14:23:49;10.82;;;8.52;;
9306;SDS011;4691;47.612;7.610;2023-06-14T14:26:21;11.77;;;8.95;;
9306;SDS011;4691;47.612;7.610;2023-06-14T14:28:49;14.10;;;9.18;;
9306;SDS011;4691;47.612;7.610;2023-06-14T14:31:18;15.95;;;9.70;;
9306;SDS011;4691;47.612;7.610;2023-06-14T14:33:47;24.73;;;9.40;;
9306;SDS011;4691;47.612;7.610;2023-06-14T14:36:12;14.57;;;9.23;;
9306;SDS011;4691;47.612;7.610;2023-06-14T14:38:38;14.18;;;8.80;;
9306;SDS011;4691;47.612;7.610;2023-06-14T14:41:04;13.75;;;9.75;;
9306;SDS011;4691;47.612;7.610;2023-06-14T14:43:30;14.57;;;8.93;;
9306;SDS011;4691;47.612;7.610;2023-06-14T14:45:56;16.55;;;9.13;;
9306;SDS011;4691;47.612;7.610;2023-06-14T14:48:21;14.13;;;9.75;;
9306;SDS011;4691;47.612;7.610;2023-06-14T14:50:47;16.23;;;8.80;;
9306;SDS011;4691;47.612;7.610;2023-06-14T14:53:12;16.73;;;9.40;;
9306;SDS011;4691;47.612;7.610;2023-06-14T14:55:41;12.02;;;8.82;;
9306;SDS011;4691;47.612;7.610;2023-06-14T14:58:07;14.82;;;8.65;;
9306;SDS011;4691;47.612;7.610;2023-06-14T15:00:33;16.58;;;9.40;;
9306;SDS011;4691;47.612;7.610;2023-06-14T15:02:58;17.80;;;9.00;;
9306;SDS011;4691;47.612;7.610;2023-06-14T15:05:26;14.23;;;9.20;;
9306;SDS011;4691;47.612;7.610;2023-06-14T15:07:52;20.63;;;9.32;;
9306;SDS011;4691;47.612;7.610;2023-06-14T15:10:17;14.48;;;8.90;;
9306;SDS011;4691;47.612;7.610;2023-06-14T15:12:43;11.75;;;9.27;;
9306;SDS011;4691;47.612;7.610;2023-06-14T15:15:08;13.05;;;9.27;;
9306;SDS011;4691;47.612;7.610;2023-06-14T15:17:36;16.95;;;9.48;;
9306;SDS011;4691;47.612;7.610;2023-06-14T15:20:02;11.68;;;8.77;;
9306;SDS011;4691;47.612;7.610;2023-06-14T15:22:27;13.25;;;9.68;;
9306;SDS011;4691;47.612;7.610;2023-06-14T15:24:53;16.20;;;9.25;;
9306;SDS011;4691;47.612;7.610;2023-06-14T15:27:18;17.40;;;9.40;;
9306;SDS011;4691;47.612;7.610;2023-06-14T15:29:43;18.13;;;9.32;;
9306;SDS011;4691;47.612;7.610;2023-06-14T15:32:09;17.30;;;9.20;;
9306;SDS011;4691;47.612;7.610;2023-06-14T15:34:36;15.00;;;9.15;;
9306;SDS011;4691;47.612;7.610;2023-06-14T15:37:02;12.90;;;9.10;;
9306;SDS011;4691;47.612;7.610;2023-06-14T15:39:28;23.65;;;9.43;;
9306;SDS011;4691;47.612;7.610;2023-06-14T15:41:59;16.80;;;9.27;;
9306;SDS011;4691;47.612;7.610;2023-06-14T15:44:25;15.73;;;9.27;;
9306;SDS011;4691;47.612;7.610;2023-06-14T15:46:51;13.43;;;8.98;;
9306;SDS011;4691;47.612;7.610;2023-06-14T15:49:16;13.77;;;9.07;;
9306;SDS011;4691;47.612;7.610;2023-06-14T15:51:43;17.80;;;8.77;;
9306;SDS011;4691;47.612;7.610;2023-06-14T15:54:11;19.02;;;9.18;;
9306;SDS011;4691;47.612;7.610;2023-06-14T15:56:36;14.13;;;8.98;;
9306;SDS011;4691;47.612;7.610;2023-06-14T15:59:02;14.82;;;9.05;;
9306;SDS011;4691;47.612;7.610;2023-06-14T16:01:27;13.15;;;9.45;;
9306;SDS011;4691;47.612;7.610;2023-06-14T16:03:53;11.68;;;8.80;;
9306;SDS011;4691;47.612;7.610;2023-06-14T16:06:18;15.00;;;9.30;;
9306;SDS011;4691;47.612;7.610;2023-06-14T16:08:44;17.08;;;9.05;;
9306;SDS011;4691;47.612;7.610;2023-06-14T16:11:10;14.13;;;8.63;;
9306;SDS011;4691;47.612;7.610;2023-06-14T16:13:36;17.75;;;8.93;;
9306;SDS011;4691;47.612;7.610;2023-06-14T16:16:01;15.50;;;8.73;;
9306;SDS011;4691;47.612;7.610;2023-06-14T16:18:26;15.17;;;8.93;;
9306;SDS011;4691;47.612;7.610;2023-06-14T16:20:51;15.27;;;9.07;;
9306;SDS011;4691;47.612;7.610;2023-06-14T16:23:19;20.30;;;9.10;;
9306;SDS011;4691;47.612;7.610;2023-06-14T16:25:45;17.80;;;9.10;;
9306;SDS011;4691;47.612;7.610;2023-06-14T16:28:10;15.07;;;8.57;;
9306;SDS011;4691;47.612;7.610;2023-06-14T16:30:35;12.07;;;9.03;;
9306;SDS011;4691;47.612;7.610;2023-06-14T16:33:01;14.43;;;8.30;;
9306;SDS011;4691;47.612;7.610;2023-06-14T16:35:26;21.63;;;9.40;;
9306;SDS011;4691;47.612;7.610;2023-06-14T16:37:51;18.30;;;9.65;;
9306;SDS011;4691;47.612;7.610;2023-06-14T16:40:17;11.68;;;8.90;;
9306;SDS011;4691;47.612;7.610;2023-06-14T16:42:43;12.82;;;9.52;;
9306;SDS011;4691;47.612;7.610;2023-06-14T16:45:10;14.10;;;8.88;;
9306;SDS011;4691;47.612;7.610;2023-06-14T16:47:35;14.80;;;8.90;;
9306;SDS011;4691;47.612;7.610;2023-06-14T16:50:00;13.93;;;8.77;;
9306;SDS011;4691;47.612;7.610;2023-06-14T16:52:26;12.23;;;8.15;;
9306;SDS011;4691;47.612;7.610;2023-06-14T16:54:52;18.10;;;8.50;;
9306;SDS011;4691;47.612;7.610;2023-06-14T16:57:17;15.88;;;8.60;;
9306;SDS011;4691;47.612;7.610;2023-06-14T16:59:42;15.48;;;8.85;;
9306;SDS011;4691;47.612;7.610;2023-06-14T17:02:08;13.65;;;8.60;;
9306;SDS011;4691;47.612;7.610;2023-06-14T17:04:33;13.68;;;8.25;;
9306;SDS011;4691;47.612;7.610;2023-06-14T17:06:58;11.50;;;8.80;;
9306;SDS011;4691;47.612;7.610;2023-06-14T17:09:23;18.67;;;8.77;;
9306;SDS011;4691;47.612;7.610;2023-06-14T17:11:49;12.90;;;9.20;;
9306;SDS011;4691;47.612;7.610;2023-06-14T17:14:14;18.90;;;9.10;;
9306;SDS011;4691;47.612;7.610;2023-06-14T17:16:40;12.32;;;8.60;;
9306;SDS011;4691;47.612;7.610;2023-06-14T17:19:06;30.60;;;9.43;;
9306;SDS011;4691;47.612;7.610;2023-06-14T17:21:32;15.80;;;9.55;;
9306;SDS011;4691;47.612;7.610;2023-06-14T17:23:58;14.93;;;8.77;;
9306;SDS011;4691;47.612;7.610;2023-06-14T17:26:24;15.38;;;9.90;;
9306;SDS011;4691;47.612;7.610;2023-06-14T17:28:50;17.67;;;9.65;;
9306;SDS011;4691;47.612;7.610;2023-06-14T17:31:17;13.23;;;9.07;;
9306;SDS011;4691;47.612;7.610;2023-06-14T17:33:42;12.15;;;9.30;;
9306;SDS011;4691;47.612;7.610;2023-06-14T17:36:08;17.65;;;9.20;;
9306;SDS011;4691;47.612;7.610;2023-06-14T17:38:36;16.25;;;9.07;;
9306;SDS011;4691;47.612;7.610;2023-06-14T17:41:02;14.63;;;9.18;;